Fort Dick, California
Current Conditions -  °F | °C
As of 8:56 PM on Monday 20 Oct 2014 (Local Time) from KCEC Reporting Station
Clear Clear  
Wind Chill: 56°   Ceiling: Unl
Heat Index: 56°   Visibility: 10mi
Dew Point: 53°   Wind: 10mph
Humidity: 90%   Direction: 200°SSW
Pressure: 29.96"   Gusts: NA
Location:  41.87°N, 124.15°W
Report Text: KCEC 210356Z AUTO 20009KT 10SM CLR 13/12 A2996 RMK AO2 SLP145 T01330117
Loading
Personal Weather Stations






























Interactive Weather Map
Tropical Storm Tracking
New forecast layout! Learn more

10-Day Weather Forecast

Advertisements
Track Severe Weather on mobile